17 min.
METAR EHKV 151725Z AUTO 03010KT 9999 NSC 07/03 Q1031

METAR uitleg | Integreren

METAR K14-FA-1C

Dit veld bevindt zich in Nederland.

Dit rapport is opgesteld voor K14-FA-1C op 15 april 2021 19:25, lokale tijd.

Vliegveldwaarnemingen

De wind staat vanuit de richting noordnoordoost (030°) met een snelheid van 10 kt.

Het zicht is 10 km of meer.

Er is geen significante bewolking waargenomen. Er is geen wolkenbasis waargenomen.

De temperatuur is 7 °C, met een gevoelstemperatuur van 3 °C. Het dauwpunt is 3 °C, dus is de relatieve luchtvochtigheid 76%. De luchtdruk op zeeniveau is 1031 hPa (QNH).

Daglichtperiode

De zon komt vandaag op om 06:45 en gaat onder om 20:45. Dit geldt voor K14-FA-1C, de universele daglichtperiode kan anders zijn. Het verschil tussen de lokale tijd en UTC is +2 uur. Op dit moment is er sprake van zomertijd.

Historische gegevens

Doneren

Help je mee om Metar-Taf.com draaiend te houden?
Jouw bijdrage helpt om de site verder te ontwikkelen en om de kosten te betalen.

Nooit meer advertenties

Doneer je € 5 of meer? Dan laten we je nooit meer advertenties zien, als blijk van onze eeuwige dankbaarheid!
Log wel even in voordat je doneert

Wil je het vliegweer van K14-FA-1C op jouw website? Meer info   Gratis!